Relay Team Info:
6th Annual Squamish Triathlon
             Results by RACE HEADQUARTERS - Darcy Locke 552-0799
     


                                                    Sunday July 13, 2003


     FINAL OVERALL Results

 FINAL Place     Place/TOTAL    FINAL  BIB  NAME of               SWIM 1.5Km BIKE 40 Km  Mi. End of BIKE  RUN  10 Km  PACE
 PLACE in SEX    in DIVISION    TIME   NO. COMPETITOR             Rank Split Rank Split /Hr. Place  TIME  Rank Split /Mile CITY

    1   1/202 M  1/29 M2529  1:58:15  338 Scott Curry               1 19:38    2 1:01:01 24.4    1 1:20:38    6 37:37  6:04 Waterloo,ON
    2   2/202 M  1/38 M3034  2:00:19  209 Darren Mealing            6 21:22    7 1:02:18 23.9    2 1:23:39    3 36:40  5:54 North Vancouver,
    3   3/202 M  1/43 M3539  2:02:15  348 Gord Addison              7 21:30   10 1:03:07 23.6    3 1:24:36    7 37:40  6:04 Squamish,BC
    4   1/50  R  1/8  R-Male 2:02:40  408  Draught Legal Machine    4 20:37   16 1:04:10 23.2    5 1:24:46    9 37:54  6:06 Vancouver,BC
    5   4/202 M  2/29 M2529  2:04:28  141 Mark Hinder              19 23:10   13 1:03:27 23.5    9 1:26:37    8 37:52  6:06 Burnaby,BC
    6   5/202 M  2/38 M3034  2:04:34  349 Sean Clark               13 22:19   24 1:05:17 22.8   10 1:27:36    4 36:58  5:57 Penticton,BC
    7   2/50  R  1/27 R-Mix  2:05:25  448  Eagle Run Coffee Co.    28 23:55    4 1:01:21 24.3    6 1:25:15   13 40:10  6:28 Brackendale,BC
    8   3/50  R  2/27 R-Mix  2:05:50  438  The Kinetic Machine     25 23:47   57 1:08:46 21.7   33 1:32:32    1 33:18  5:22 Burnaby,BC
    9   6/202 M  3/38 M3034  2:06:35   61 Tim Cole                 12 22:05   14 1:03:55 23.3    7 1:25:59   15 40:36  6:32 Kamloops,BC
   10   1/133 F  1/23 F2529  2:09:24  106 Tiffany Evans             8 21:32   34 1:06:53 22.3   13 1:28:24   21 41:00  6:36 Victoria,BC
   11   7/202 M  3/29 M2529  2:09:34  215 Pete Moffat              43 24:51   11 1:03:07 23.6   11 1:27:58   30 41:37  6:42 North Vancouver,
   12   2/133 F  2/23 F2529  2:10:45  156 Rachel Joyce              2 20:24   56 1:08:43 21.7   17 1:29:07   31 41:38  6:43 Victoria,BC
   13   4/50  R  2/8  R-Male 2:10:49  420  Mutalated Sea Bass      53 25:54   15 1:04:09 23.3   19 1:30:03   18 40:46  6:34 Garibaldi Hghlan,
   14   8/202 M  1/34 M4044  2:11:01  296 Paul Suter               34 24:08   19 1:04:40 23.1   15 1:28:48   39 42:14  6:48 Whistler,BC
   15   9/202 M  4/29 M2529  2:11:03  325 Matt Webster             44 24:57   38 1:07:14 22.2   30 1:32:11   10 38:53  6:16 Squamish,BC
   16  10/202 M  1/24 M4549  2:11:18  247 Ken Pickthall            30 23:58   29 1:06:31 22.4   22 1:30:28   19 40:51  6:35 Burnaby,BC
   17  11/202 M  2/24 M4549  2:12:21   28 Art Boileau             170 29:43   23 1:05:17 22.8   52 1:35:00    5 37:21  6:01 Vancouver,BC
   18   5/50  R  3/27 R-Mix  2:12:52  418  Mmm Forbidden Doughnu   15 22:34    5 1:02:12 24.0    4 1:24:46  120 48:07  7:45 Vancouver,BC
   19   6/50  R  4/27 R-Mix  2:12:53  428  Speedos Spandex & Lyc  157 29:11    3 1:01:04 24.4   20 1:30:14   41 42:40  6:52 Whistler,BC
   20  12/202 M  4/38 M3034  2:13:04  140 David Higgins            11 22:02   63 1:09:08 21.6   24 1:31:10   34 41:54  6:45 Whistler,BC
   21   7/50  R  3/8  R-Male 2:13:08  436  The Firesnakes         131 28:25    1 1:00:06 24.8   14 1:28:31   65 44:37  7:11 Garibaldi Hghlan,
   22  13/202 M  5/29 M2529  2:13:13   62 Sean Collings            10 21:54   94 1:10:57 21.0   36 1:32:50   14 40:24  6:30 North Vancouver,
   23  14/202 M  2/43 M3539  2:13:22  230 Paul Nicholas            63 26:13   26 1:06:14 22.5   32 1:32:27   20 40:55  6:36 Whistler,BC
   24   3/133 F  3/23 F2529  2:13:26   48 Kristine Chambers        31 24:03   17 1:04:15 23.2   12 1:28:17   74 45:09  7:16 Vancouver,BC
   25  15/202 M  2/34 M4044  2:13:39   32 Steve Bradley            32 24:03   33 1:06:50 22.3   23 1:30:52   43 42:48  6:54 Vancouver,BC
   26   8/50  R  4/8  R-Male 2:13:42  409  Eagle Run Coffee Co.   193 30:18    6 1:02:17 23.9   34 1:32:35   25 41:08  6:38 Garibaldi Hghlan,
   27   9/50  R  5/8  R-Male 2:14:34  422  Noaks/Ellis/Smith       54 26:01   39 1:07:28 22.1   40 1:33:29   24 41:06  6:37 Squamish,BC
   28  16/202 M  1/11 M2024  2:14:56    1 Jason Abrams             17 22:55   50 1:08:19 21.8   25 1:31:14   50 43:43  7:03 Vancouver,BC
   29  17/202 M  3/24 M4549  2:15:14  137 Daniel Havens            38 24:29  106 1:11:40 20.8   60 1:36:08   11 39:06  6:18 Whistler,BC
   30  18/202 M  6/29 M2529  2:15:21  203 Matt McDowell            49 25:38   25 1:05:39 22.7   26 1:31:17   57 44:04  7:06 Powell River,BC
   31  19/202 M  3/34 M4044  2:15:48  264 David Robertson          51 25:43   18 1:04:34 23.1   21 1:30:17   78 45:32  7:20 Burnaby,BC
   32  20/202 M  4/24 M4549  2:15:48  204 Michael McGee           124 28:13   35 1:06:54 22.3   54 1:35:07   16 40:41  6:33 Maple Ridge,BC
   33  10/50  R  5/27 R-Mix  2:15:48  427  Shake Rattle & Roll     84 26:49    8 1:02:19 23.9   16 1:29:07  101 46:42  7:31 Garibaldi Hghlan,
   34  21/202 M  3/43 M3539  2:16:00  275 Alex Seal                72 26:28   44 1:07:49 22.0   44 1:34:16   32 41:44  6:43 Salmon Arm,BC
   35  11/50  R  6/27 R-Mix  2:16:06  413  HammerTime              27 23:51   62 1:09:06 21.6   38 1:32:56   47 43:10  6:57 Vancouver,BC
   36  12/50  R  7/27 R-Mix  2:16:16  433  Team DSD Supremes       70 26:27   21 1:05:01 22.9   29 1:31:27   71 44:49  7:13 North Vancouver,
   37  22/202 M  4/43 M3539  2:16:21   20 Pierre Berube            18 23:04  104 1:11:33 20.8   47 1:34:36   33 41:45  6:44 Vancouver,BC
   38   4/133 F  1/10 F2024  2:17:12  319 Zuzana Vojtekova          9 21:53  137 1:13:07 20.4   53 1:35:00   37 42:13  6:48 North Vancouver,
   39  23/202 M  5/38 M3034  2:17:20  258 Shane Reaume             75 26:30   48 1:08:04 21.9   45 1:34:33   42 42:47  6:54 Coquitlam,BC
   40  24/202 M  2/11 M2024  2:17:44   82 Julio Daza               76 26:32   28 1:06:30 22.4   39 1:33:01   69 44:43  7:12 Burnaby,BC
   41  13/50  R  8/27 R-Mix  2:17:55  405  Beached Bonked & Blis   23 23:34    9 1:02:31 23.9    8 1:26:05  185 51:51  8:21 Whistler,BC
   42  25/202 M  5/24 M4549  2:18:00  351 Mark Shorter             52 25:47   92 1:10:50 21.1   68 1:36:36   28 41:25  6:40 North Vancouver,
   43  14/50  R  1/15 R-Fem  2:18:18  447  Endless Summerettes     14 22:31   37 1:07:13 22.2   18 1:29:44  135 48:35  7:50 Whistler,BC
   44  26/202 M  6/38 M3034  2:18:23  198 Paul Martinson           45 25:05   71 1:09:31 21.5   46 1:34:36   53 43:48  7:03 Vancouver,BC
   45  27/202 M  5/43 M3539  2:18:29  143 Bobby Holden            107 27:44   36 1:06:59 22.3   50 1:34:43   52 43:46  7:03 Vancouver,BC
   46  15/50  R  9/27 R-Mix  2:18:31  406  Coastal Health         129 28:19   54 1:08:40 21.7   80 1:36:58   29 41:33  6:42 Vancouver,BC
   47  28/202 M  6/43 M3539  2:18:46  350 Matt Hill                74 26:28   81 1:10:05 21.3   65 1:36:33   38 42:13  6:48 Vancouver,BC
   48  16/50  R  2/15 R-Fem  2:19:00  431  TantalusBikeShopTanta   60 26:13   42 1:07:38 22.1   41 1:33:50   75 45:10  7:17 Garibaldi Hghlan,
   49  29/202 M  3/11 M2024  2:19:21  249 Andrew Pitre            125 28:15   27 1:06:23 22.5   48 1:34:37   70 44:44  7:12 Victoria,BC
   50  30/202 M  7/29 M2529  2:19:32  228 Chris Neufeld           101 27:20   68 1:09:21 21.5   70 1:36:41   44 42:52  6:54 Garibaldi Highln,
   51  31/202 M  7/43 M3539  2:19:51    9 Bruce Angus              40 24:41   31 1:06:44 22.4   28 1:31:24  130 48:27  7:48 Coquitlam,BC
   52  32/202 M  4/34 M4044  2:19:54  206 Neil McKinnon           162 29:25   69 1:09:27 21.5   94 1:38:51   23 41:04  6:37 Squamish,BC
   53  33/202 M  8/29 M2529  2:19:56   68 Brian Coote               3 20:27   93 1:10:56 21.0   27 1:31:23  133 48:33  7:49 White Rock,BC
   54  34/202 M  5/34 M4044  2:19:58  283 Julian Somers            36 24:15   52 1:08:26 21.8   35 1:32:40  110 47:19  7:37 North Vancouver,
   55  35/202 M  6/34 M4044  2:20:02  334 Steve Woodyear-Smith     86 26:50   46 1:07:52 22.0   49 1:34:42   77 45:21  7:18 North Vancouver,
   56  36/202 M  7/38 M3034  2:20:03  327 Daniel Westwood          39 24:36   88 1:10:35 21.1   55 1:35:11   72 44:52  7:14 Westbank,BC
   57   5/133 F  1/30 F3539  2:20:17  257 Michelle Reaume          57 26:04   32 1:06:48 22.3   37 1:32:52  111 47:25  7:38 Coquitlam,BC
   58  37/202 M  7/34 M4044  2:20:34  239 Mario Parmentier        135 28:35   43 1:07:48 22.0   64 1:36:23   59 44:11  7:07 North Vancouver,
   59  38/202 M  9/29 M2529  2:20:37  126 Patrick Graham          248 31:59   20 1:04:55 23.0   78 1:36:54   51 43:43  7:03 Vancouver,BC
   60  39/202 M  4/11 M2024  2:21:02   11 Jonn Axsen              137 28:36   80 1:10:02 21.3   92 1:38:37   40 42:25  6:50 Vancouver,BC
   61  40/202 M  8/43 M3539  2:21:16  255 Dave Ratcliff            65 26:20   83 1:10:15 21.2   66 1:36:35   68 44:41  7:12 vancouver,BC
   62  41/202 M  8/38 M3034  2:21:16  291 Tim Stewart              85 26:49   79 1:10:00 21.3   75 1:36:48   63 44:28  7:10 North Vancouver,
   63  42/202 M  9/38 M3034  2:21:20  314 Gerrit van Schalkwyk    117 28:00   78 1:09:51 21.4   88 1:37:51   48 43:30  7:00 Vancouver,BC
   64  43/202 M  5/11 M2024  2:21:44  344 Ricardo Azeredo          93 27:08   22 1:05:11 22.9   31 1:32:18  146 49:26  7:58 ,
   65  44/202 M  1/4  M1519  2:21:49  161 Stephen Kilshaw         111 27:51  133 1:12:55 20.5  117 1:40:45   22 41:04  6:37 Victoria,BC
   66  45/202 M  9/43 M3539  2:21:52  177 Cameron Lebans          258 32:19   49 1:08:10 21.9  114 1:40:29   27 41:24  6:40 Vancouver,BC
   67  46/202 M 10/29 M2529  2:22:20  347 Justin Mark              91 27:03   65 1:09:17 21.5   63 1:36:20   84 46:00  7:25 Port Moody,BC
   68  47/202 M  8/34 M4044  2:22:23   75 Jordon Dagg              56 26:02  114 1:12:01 20.7   89 1:38:02   60 44:21  7:09 Victoria,BC
   69  48/202 M  9/34 M4044  2:22:32   83 Bob Deeks               123 28:13   47 1:08:04 21.9   62 1:36:17   93 46:16  7:27 Whistler,BC
   70  49/202 M 11/29 M2529  2:22:36  241 Bruce Passmore           55 26:02  164 1:14:35 20.0  116 1:40:36   36 42:00  6:46 Vancouver,BC
   71  50/202 M 10/43 M3539  2:22:52  119 Jose Gavina             119 28:04   60 1:08:50 21.7   77 1:36:53   83 45:59  7:24 North Vancouver,
   72   6/133 F  2/30 F3539  2:22:53  136 Elizabeth Hatch          94 27:08   41 1:07:35 22.1   51 1:34:43  121 48:10  7:46 Maple Ridge,BC
   73  51/202 M 10/38 M3034  2:23:09  196 Reid Martin              99 27:17   70 1:09:27 21.5   73 1:36:44   96 46:26  7:29 Surrey,BC
   74   7/133 F  4/23 F2529  2:23:12  307 Kelley Toy               37 24:22  129 1:12:41 20.5   81 1:37:02   89 46:11  7:26 Vancouver,BC
   75  52/202 M 11/38 M3034  2:23:28  134 Martin Harley            48 25:37   53 1:08:26 21.8   43 1:34:03  145 49:25  7:58 Vancouver,BC
   76  53/202 M 10/34 M4044  2:23:28   97 Dave Ellenwood          155 29:07   55 1:08:42 21.7   86 1:37:49   81 45:40  7:21 Langley,BC
   77  54/202 M 11/34 M4044  2:23:32  149 Paul Johnson             35 24:12  205 1:17:26 19.3  124 1:41:37   35 41:55  6:45 Vancouver,BC
   78  55/202 M 11/43 M3539  2:23:44  197 Ernst Martinkowitsch    146 28:55   51 1:08:21 21.8   82 1:37:16   98 46:29  7:29 North Vancouver,
   79  56/202 M 12/38 M3034  2:23:54  332 Ed Wong                 122 28:07   99 1:11:09 21.0  100 1:39:16   67 44:39  7:12 Vancouver,BC
   80  57/202 M 13/38 M3034  2:23:59  221 David Murray             73 26:28  101 1:11:22 20.9   87 1:37:49   88 46:11  7:26 Vancouver,BC
   81  58/202 M 14/38 M3034  2:24:01   95 Ben Eksteen             192 30:16  135 1:13:02 20.4  141 1:43:18   17 40:44  6:34 Garibaldi Hghlan,
   82  59/202 M  6/11 M2024  2:24:05  234 Ryan O'Shea             104 27:34  119 1:12:20 20.6  108 1:39:54   58 44:11  7:07 Surrey,BC
   83   8/133 F  2/10 F2024  2:24:15  240 Charlene Parrott         29 23:56  103 1:11:31 20.9   56 1:35:27  139 48:49  7:52 Coquitlam,BC
   84  60/202 M 12/29 M2529  2:24:21  280 Paul Sidlick             95 27:10  105 1:11:34 20.8   93 1:38:44   80 45:38  7:21 Saanichton,BC
   85  61/202 M 12/43 M3539  2:24:56   98 Peter Eller             126 28:16  107 1:11:43 20.8  110 1:39:59   73 44:58  7:15 Vancouver,BC
   86  62/202 M 12/34 M4044  2:25:11   74 Martin Curtis           110 27:48   61 1:08:59 21.6   74 1:36:47  128 48:25  7:48 Coquitlam,BC
   87  63/202 M  6/24 M4549  2:25:15  216 Paul Moraze              89 27:01   59 1:08:48 21.7   57 1:35:49  147 49:26  7:58 Port Moody,BC
   88  64/202 M 15/38 M3034  2:25:24   85 Stephane Deseau         153 29:07  172 1:15:05 19.9  150 1:44:11   26 41:14  6:39 North Vancouver,
   89   9/133 F  1/36 F3034  2:25:29  331 Marcia Wilson            58 26:06   91 1:10:48 21.1   76 1:36:53  137 48:37  7:50 Kamloops,BC
   90  65/202 M 16/38 M3034  2:26:03  128 Jeff Grout               92 27:06   73 1:09:36 21.4   71 1:36:42  144 49:22  7:57 Maple Ridge,BC
   91  10/133 F  5/23 F2529  2:26:07  142 Teresa Hoivik           106 27:42  116 1:12:12 20.7  107 1:39:53   90 46:14  7:27 Squamish,BC
   92  66/202 M 13/43 M3539  2:26:11  309 Sandy Treagus           168 29:35   66 1:09:19 21.5   96 1:38:54  108 47:18  7:37 Whistler,BC
   93  67/202 M  2/4  M1519  2:26:44  270 Max Roy                 138 28:38   86 1:10:26 21.2   97 1:39:03  113 47:41  7:41 Garibaldi Hghlan,
   94  11/133 F  3/30 F3539  2:26:46    2 Leslie Achtem            24 23:39  155 1:13:54 20.2   85 1:37:33  141 49:14  7:56 Vancouver,BC
   95  68/202 M 17/38 M3034  2:27:05  226 Derrick Nelson          114 27:57  117 1:12:12 20.7  112 1:40:09  104 46:57  7:34 Delta,BC
   96  69/202 M  7/24 M4549  2:27:06    4 Ken Adams               256 32:15  111 1:11:53 20.8  149 1:44:07   45 43:00  6:56 Garibaldi Hghlan,
   97  17/50  R 10/27 R-Mix  2:27:09  421  Nelson Express         216 30:49   12 1:03:13 23.6   42 1:34:02  204 53:07  8:33 Vancouver,BC
   98  70/202 M 13/34 M4044  2:27:11  326 James Welsh             145 28:49   45 1:07:50 22.0   69 1:36:38  169 50:33  8:09 North Vancouver,
   99  12/133 F  3/10 F2024  2:27:17   99 Jane Emerick             96 27:10   58 1:08:46 21.7   59 1:35:56  179 51:21  8:16 Squamish,BC
  100  13/133 F  2/36 F3034  2:27:26  251 Marie-Anne Prevost      144 28:47   95 1:10:58 21.0  106 1:39:44  114 47:42  7:41 Whistler,BC
  101  14/133 F  6/23 F2529  2:27:27  121 Heather Gerth            59 26:07  130 1:12:45 20.5   95 1:38:52  136 48:36  7:50 Vancouver,BC
  102  71/202 M  1/8  M5559  2:27:34  274 Greg Sandkuhl            47 25:36  112 1:11:54 20.7   84 1:37:29  161 50:05  8:04 Whistler,BC
  103  15/133 F  7/23 F2529  2:27:40  111 Tiffany Fenton           64 26:16   85 1:10:20 21.2   67 1:36:36  174 51:05  8:14 Squamish,BC
  104  72/202 M 13/29 M2529  2:27:44  298 Trevor Takach           185 30:05  165 1:14:37 20.0  163 1:44:42   46 43:03  6:56 Vancouver,BC
  105  16/133 F  3/36 F3034  2:28:08  202 Elizabeth McDonald      148 28:55   90 1:10:46 21.1  105 1:39:41  131 48:28  7:48 Coquitlam,BC
  106  17/133 F  4/36 F3034  2:28:10  324 Laura Weatherly          90 27:02  128 1:12:38 20.5  104 1:39:40  132 48:31  7:49 Vancouver,BC
  107  18/133 F  5/36 F3034  2:28:24  232 Marisa Norona           167 29:34  168 1:14:48 19.9  152 1:44:21   56 44:03  7:06 Vancouver,BC
  108  73/202 M  8/24 M4549  2:28:38   17 Ric Beattie             198 30:22  110 1:11:51 20.8  130 1:42:13   95 46:25  7:29 Port Moody,BC
  109  74/202 M 14/43 M3539  2:28:41  337 W.Paul Wright           142 28:42  142 1:13:16 20.4  128 1:41:57  102 46:44  7:32 Sechelt,BC
  110  75/202 M 14/34 M4044  2:28:49  165 Kirby Koochin           105 27:38  202 1:17:11 19.3  166 1:44:49   55 44:01  7:05 North Vancouver,
  111  76/202 M 18/38 M3034  2:28:53  242 Duncan Pearce           163 29:25   75 1:09:49 21.4   99 1:39:14  151 49:40  8:00 West Vancouver,B
  112  19/133 F  8/23 F2529  2:29:00   25 Caroline Blewett         22 23:33  217 1:18:10 19.1  126 1:41:42  109 47:18  7:37 Whistler,BC
  113  77/202 M 14/29 M2529  2:29:04  271 Michael Ryan            275 33:12   82 1:10:11 21.3  142 1:43:22   82 45:42  7:22 Vancouver,BC
  114  18/50  R 11/27 R-Mix  2:29:18  425  Rock & Hammer           20 23:14  239 1:19:57 18.7  137 1:43:10   87 46:08  7:26 Vancouver,BC
  115  19/50  R  6/8  R-Male 2:29:24  437  The Hairy Bald Guys    180 29:57   74 1:09:40 21.4  103 1:39:36  157 49:48  8:01 Garibaldi Hghlan,
  116  20/133 F  4/30 F3539  2:29:24   54 Terri Clapham            88 26:59  166 1:14:40 20.0  125 1:41:38  115 47:46  7:42 Shawnigan Lake,B
  117  78/202 M  1/4  M5054  2:29:25  311 Randy Trerise           268 32:49   76 1:09:50 21.4  135 1:42:39  103 46:47  7:32 Grand Forks,BC
  118  79/202 M  1/5  M6064  2:29:29   24 Jim Bishop              221 31:08  115 1:12:08 20.7  139 1:43:16   91 46:14  7:27 North Vancouver,
  119  21/133 F  5/30 F3539  2:29:32  133 Moria-Ann Handford      204 30:34  108 1:11:46 20.8  131 1:42:20  106 47:13  7:36 Vancouver,BC
  120  80/202 M 15/43 M3539  2:29:40  160 Mark Keeley              71 26:27  149 1:13:40 20.2  111 1:40:07  149 49:33  7:59 Vancouver,BC
  121  81/202 M 16/43 M3539  2:29:45   57 Rand Clement            231 31:28  136 1:13:04 20.4  159 1:44:31   76 45:14  7:17 North Vancouver,
  122  82/202 M 15/29 M2529  2:29:51  321 Joel Waithman           224 31:12   67 1:09:19 21.5  115 1:40:30  143 49:21  7:57 Vancouver,BC
  123  20/50  R 12/27 R-Mix  2:29:53  419  MT & the Metalettes     26 23:50  131 1:12:53 20.5   72 1:36:42  206 53:11  8:34 Squamish,BC
  124  83/202 M  7/11 M2024  2:29:54  293 Levi Stoelting          188 30:07   77 1:09:51 21.4  109 1:39:58  159 49:56  8:03 Vancouver,BC
  125  84/202 M 15/34 M4044  2:30:04  147 Geoff Hyatt             141 28:41  143 1:13:18 20.3  129 1:41:58  118 48:06  7:45 Victoria,BC
  126  85/202 M  9/24 M4549  2:30:06  214 Bruce Moffat            234 31:39   72 1:09:33 21.4  119 1:41:11  140 48:56  7:53 West Vancouver,B
  127  22/133 F  4/10 F2024  2:30:41  193 Sarah Manske             78 26:38  134 1:12:58 20.4  102 1:39:36  175 51:06  8:14 Burnaby,BC
  128  21/50  R 13/27 R-Mix  2:30:50  439  The Master Debaters    121 28:07  159 1:14:21 20.1  132 1:42:28  127 48:22  7:47 Garibaldi Hghlan,
  129  86/202 M 16/34 M4044  2:31:04   69 Brian Corbett            21 23:21  287 1:24:03 17.7  193 1:47:24   49 43:41  7:02 Penticton,BC
  130  87/202 M 17/43 M3539  2:31:14  320 Nick Von Schoenberg     189 30:14  141 1:13:14 20.4  143 1:43:27  116 47:47  7:42 Burnaby,BC
  131  88/202 M 18/43 M3539  2:31:15   60 John Coelho             194 30:18   30 1:06:38 22.4   79 1:36:56  229 54:20  8:45 Kamloops,BC
  132  89/202 M 16/29 M2529  2:31:25  222 Glen Murray             103 27:23   96 1:11:00 21.0   91 1:38:23  201 53:02  8:32 Whistler,BC
  133  90/202 M  2/5  M6064  2:31:41  238 Brian Parkinson         147 28:55  160 1:14:22 20.1  140 1:43:16  129 48:25  7:48 Langley,BC
  134  91/202 M 19/38 M3034  2:31:52  184 Jason Lopez              42 24:48   97 1:11:02 21.0   58 1:35:49  258 56:04  9:02 Vancouver,BC
  135  92/202 M 17/29 M2529  2:32:00   50 Ron Cho                  62 26:13  230 1:19:31 18.8  172 1:45:43   94 46:17  7:27 Vancouver,BC
  136  93/202 M 19/43 M3539  2:32:06  352 Simon Chow              108 27:46   87 1:10:32 21.1   90 1:38:17  223 53:49  8:40 Vancouver,BC
  137  94/202 M 10/24 M4549  2:32:23   45 Michael Cater           276 33:13  127 1:12:37 20.5  173 1:45:49  100 46:34  7:30 Langley,BC
  138  95/202 M 11/24 M4549  2:32:34  290 Dan Stewart             241 31:52  123 1:12:31 20.6  154 1:44:23  122 48:12  7:46 North Vancouver,
  139  96/202 M 20/43 M3539  2:32:48  112 Robert Feustel          183 30:02  163 1:14:35 20.0  162 1:44:37  123 48:12  7:46 North Vancouver,
  140  97/202 M 12/24 M4549  2:33:02  342 Robert Unger            151 29:05  147 1:13:33 20.3  134 1:42:38  165 50:25  8:07 Vancouver,BC
  141  98/202 M 18/29 M2529  2:33:20  250 Greg Pitre              267 32:42  139 1:13:11 20.4  174 1:45:52  112 47:28  7:39 Victoria,BC
  142  99/202 M 21/43 M3539  2:33:31  346 Ken Addison             182 30:00  100 1:11:20 20.9  122 1:41:20  189 52:11  8:24 Coquitlam,BC
  143 100/202 M 22/43 M3539  2:33:45  305 Chris Townsend          308 34:42  126 1:12:36 20.5  191 1:47:18   97 46:27  7:29 Coquitlam,BC
  144  22/50  R 14/27 R-Mix  2:33:47  410  G&T Pool and Spa       156 29:10   84 1:10:17 21.2  101 1:39:27  230 54:20  8:45 Squamish,BC
  145 101/202 M 23/43 M3539  2:33:47  176 Sean Lawson             218 30:53  140 1:13:11 20.4  146 1:44:04  153 49:44  8:01 North Vancouver,
  146 102/202 M 24/43 M3539  2:34:00  153 Robert Johnston          79 26:45  146 1:13:28 20.3  113 1:40:13  222 53:48  8:40 Coquitlam,BC
  147 103/202 M 20/38 M3034  2:34:12  333 Gavin Wood              289 33:33  124 1:12:34 20.6  176 1:46:06  119 48:07  7:45 Vancouver,BC
  148  23/133 F  1/6  F4549  2:34:20   18 Lorraine Beese          136 28:36  181 1:16:08 19.6  164 1:44:43  150 49:38  8:00 West Vancouver,B
  149  24/133 F  6/30 F3539  2:34:31  210 Maxine Mikolay          205 30:35  212 1:17:49 19.2  206 1:48:23   86 46:08  7:26 North Vancouver,
  150 104/202 M 17/34 M4044  2:34:38  254 Warren Quinn            330 36:30  113 1:11:54 20.7  207 1:48:24   92 46:15  7:27 White Rock,BC
  151  25/133 F  6/36 F3034  2:34:59  225 Sherrie Myers           139 28:40  176 1:15:42 19.7  153 1:44:22  170 50:38  8:09 Vancouver,BC
  152  26/133 F  9/23 F2529  2:35:21   23 Karin Binder            209 30:40  150 1:13:44 20.2  155 1:44:24  172 50:57  8:12 North Vancouver,
  153  27/133 F 10/23 F2529  2:35:21  220 Jackie Muir             178 29:54  200 1:17:06 19.3  183 1:47:00  126 48:22  7:47 Vancouver,BC
  154 105/202 M 21/38 M3034  2:35:24    5 Jason Adamschek         190 30:14  213 1:17:53 19.2  204 1:48:07  107 47:17  7:37 Vancouver,BC
  155  28/133 F  7/30 F3539  2:35:24  138 Marilyn Hellier         207 30:39  153 1:13:47 20.2  156 1:44:26  173 50:59  8:13 Whistler,BC
  156 106/202 M 18/34 M4044  2:35:27  187 Leandro Lucente         143 28:43  222 1:18:56 18.9  195 1:47:38  117 47:50  7:42 Vancouver,BC
  157 107/202 M 22/38 M3034  2:35:49   43 Rob Campbell            202 30:32  148 1:13:35 20.3  148 1:44:06  183 51:43  8:20 Vancouver,BC
  158  23/50  R 15/27 R-Mix  2:36:02  424  Pirates Swimmers       140 28:41   40 1:07:34 22.1   61 1:36:14  308 59:48  9:38 Garibaldi Hghlan,
  159 108/202 M 25/43 M3539  2:36:09  340 Guy Morum                46 25:31  177 1:15:46 19.7  120 1:41:16  239 54:54  8:51 Squamish,BC
  160 109/202 M 26/43 M3539  2:36:15  354 Thor Edqvist            201 30:26  167 1:14:43 20.0  168 1:45:08  176 51:07  8:14 Gothenburg,SW
  161  29/133 F  8/30 F3539  2:36:24  284 Kim Somerville          158 29:14  184 1:16:28 19.5  170 1:45:42  171 50:42  8:10 Richmond,BC
  162 110/202 M 19/29 M2529  2:36:32   33 Pete Brennan            109 27:48  240 1:20:11 18.6  202 1:47:59  134 48:34  7:49 Squamish,BC
  163 111/202 M  8/11 M2024  2:36:41   42 Adam Campbell             5 21:00  363 1:40:02 14.9  306 2:01:02    2 35:39  5:45 Victoria,BC
  164 112/202 M 19/34 M4044  2:36:57  233 Fraser Norrie            50 25:38  226 1:19:14 18.8  167 1:44:52  188 52:06  8:23 Vancouver,BC
  165  30/133 F  1/13 F4044  2:37:03  273 Sonja Saksida           134 28:29  145 1:13:23 20.3  127 1:41:52  245 55:12  8:53 Campbell River,B
  166 113/202 M 23/38 M3034  2:37:07  323 Michiya Watanabe        113 27:53  238 1:19:54 18.7  200 1:47:47  142 49:21  7:57 Vancouver,BC
  167 114/202 M 20/34 M4044  2:37:16  269 Peter Ross              159 29:16  214 1:17:53 19.2  185 1:47:09  162 50:07  8:04 Vancouver,BC
  168  31/133 F  9/30 F3539  2:37:24  279 Jacalyne Sherlock       242 31:52  151 1:13:44 20.2  169 1:45:36  184 51:48  8:21 Whistler,BC
  169 115/202 M  2/8  M5559  2:37:25  345 Peter Calder            228 31:22  179 1:15:53 19.7  189 1:47:14  163 50:11  8:05 West Vancouver,B
  170  32/133 F 10/30 F3539  2:37:36  159 Dawn Kardos             223 31:12  102 1:11:26 20.9  133 1:42:38  242 54:59  8:51 Courtenay,BC
  171 116/202 M  3/4  M1519  2:37:41   84 David DeRusha           211 30:44  185 1:16:28 19.5  186 1:47:12  166 50:29  8:08 Squamish,BC
  172  33/133 F 11/30 F3539  2:37:44  300 Julie Tennock           243 31:53  207 1:17:35 19.2  223 1:49:27  125 48:17  7:47 Garibaldi Hghlan,
  173 117/202 M 13/24 M4549  2:37:57   67 Steve Cooper            169 29:42  189 1:16:42 19.4  177 1:46:23  181 51:35  8:18 North Vancouver,
  174 118/202 M 24/38 M3034  2:38:01   12 Philip Bailey           291 33:39  170 1:14:54 19.9  212 1:48:33  148 49:29  7:58 Vancouver,BC
  175 119/202 M 21/34 M4044  2:38:08  339 Gord McAllister         282 33:20   89 1:10:44 21.1  145 1:44:03  228 54:06  8:43 Kamloops,BC
  176 120/202 M 25/38 M3034  2:38:11  170 Tom Lancaster           298 34:08  157 1:14:19 20.1  209 1:48:26  155 49:45  8:01 Vancouver,BC
  177 121/202 M 27/43 M3539  2:38:51   93 Kevin Eck               100 27:19  109 1:11:50 20.8   98 1:39:08  307 59:43  9:37 Vancouver,BC
  178 122/202 M 26/38 M3034  2:38:56    6 Robert Airey            165 29:26  171 1:15:01 19.9  157 1:44:26  233 54:30  8:47 Vancouver,BC
  179  34/133 F  2/13 F4044  2:39:07  107 Sandra Eves             130 28:19  223 1:18:56 18.9  188 1:47:14  186 51:53  8:21 Garibaldi Hghlan,
  180 123/202 M 20/29 M2529  2:39:07   22 Jay Bicknell             67 26:26  211 1:17:45 19.2  151 1:44:11  240 54:56  8:51 Garibaldi Hghlan,
  181 124/202 M 28/43 M3539  2:39:14   19 JeanY. Benoit           184 30:03  195 1:16:53 19.4  181 1:46:56  190 52:18  8:25 North Vancouver,
  182  35/133 F  7/36 F3034  2:39:17   80 Megan Davies            149 28:58  245 1:20:31 18.5  224 1:49:29  158 49:48  8:01 Vancouver,BC
  183  36/133 F  3/13 F4044  2:39:25   26 Jodi Boates             154 29:07  216 1:17:59 19.1  184 1:47:06  191 52:19  8:26 North Vancouver,
  184 125/202 M 22/34 M4044  2:39:29  243 Scott Peberdy           259 32:20  276 1:22:44 18.0  258 1:55:03   62 44:26  7:10 Vancouver,BC
  185  37/133 F 12/30 F3539  2:39:43  316 Yvonne Visser           199 30:25  266 1:22:07 18.2  244 1:52:32  105 47:12  7:36 Nanaimo,BC
  186  38/133 F  8/36 F3034  2:39:53   40 Andrea Camp             206 30:37  118 1:12:14 20.7  136 1:42:51  277 57:03  9:11 Vancouver,BC
  187 126/202 M  9/11 M2024  2:40:15  289 Travis Stevenson        237 31:43   64 1:09:15 21.5  118 1:40:58  304 59:18  9:33 Burnaby,BC
  188  39/133 F  5/10 F2024  2:40:16  285 Jenica Sorban            83 26:48  161 1:14:31 20.0  121 1:41:19  296 58:57  9:30 Squamish,BC
  189  40/133 F  1/5  F5054  2:40:29  329 Helle Wilburn           280 33:19  122 1:12:25 20.6  171 1:45:43  238 54:46  8:49 Squamish,BC
  190 127/202 M 27/38 M3034  2:40:34  148 Keith Iwasaki           260 32:22  186 1:16:33 19.5  218 1:48:54  182 51:40  8:19 Vancouver,BC
  191  41/133 F  2/6  F4549  2:40:37   38 Aenea Cameron           344 38:39  203 1:17:23 19.3  265 1:56:01   64 44:36  7:11 Squamish,BC
  192 128/202 M 29/43 M3539  2:40:39  122 David Gibbs             230 31:26  138 1:13:11 20.4  161 1:44:36  257 56:03  9:02 Burnaby,BC
  193  42/133 F  9/36 F3034  2:40:50  287 Esther Speck            196 30:19  197 1:16:57 19.4  190 1:47:15  215 53:35  8:38 Vancouver,BC
  194 129/202 M  2/4  M5054  2:40:55  341 Chuck Garrett           172 29:45  158 1:14:20 20.1  147 1:44:05  275 56:51  9:09 Victoria,BC
  195  43/133 F 13/30 F3539  2:40:57   86 Anna Desireau           191 30:14  204 1:17:25 19.3  196 1:47:38  209 53:19  8:35 Kamloops,BC
  196 130/202 M 14/24 M4549  2:41:03  297 Kevin Sweetman          250 32:02  198 1:17:00 19.4  222 1:49:02  187 52:02  8:23 Penticton,BC
  197  24/50  R 16/27 R-Mix  2:41:08  426  Salty Don & the Earls  325 36:01  174 1:15:24 19.8  239 1:51:24  154 49:44  8:01 Garibaldi Hghlan,
  198 131/202 M 21/29 M2529  2:41:16  120 David Gerth             177 29:54  154 1:13:51 20.2  144 1:43:45  286 57:32  9:16 Surrey,BC
  199 132/202 M 23/34 M4044  2:41:23   55 Chris Clark             332 36:36  243 1:20:22 18.6  275 1:56:58   61 44:25  7:09 Vancouver,BC
  200 133/202 M 28/38 M3034  2:41:24   79 John Davies             342 38:07  162 1:14:33 20.0  245 1:52:39  138 48:45  7:51 Vancouver,BC
  201 134/202 M  4/4  M1519  2:41:25  158 Alex Kardos              41 24:45  336 1:30:34 16.5  259 1:55:18   85 46:08  7:26 Courtenay,BC
  202  44/133 F 10/36 F3034  2:41:37  262 Birgitte Rickard         98 27:15  247 1:20:39 18.5  201 1:47:54  218 53:44  8:39 Vancouver,BC
  203 135/202 M  3/8  M5559  2:41:55  199 Ron Matthews            294 33:59  156 1:14:03 20.1  203 1:48:02  224 53:54  8:41 Langley,BC
  204  45/133 F 11/36 F3034  2:42:01  245 Andrea Perrino          236 31:43  194 1:16:53 19.4  214 1:48:35  212 53:27  8:36 North Vancouver,
  205  46/133 F 12/36 F3034  2:42:16   29 Corinna Bork            208 30:39  209 1:17:38 19.2  205 1:48:17  225 54:00  8:42 Vancouver,BC
  206 136/202 M 15/24 M4549  2:42:29   46 Mike Cates              118 28:01  233 1:19:46 18.7  199 1:47:47  236 54:43  8:49 Vancouver,BC
  207  47/133 F 14/30 F3539  2:42:52   15 Lorna Bauer             173 29:48  208 1:17:36 19.2  192 1:47:23  247 55:29  8:56 North Vancouver,
  208 137/202 M 22/29 M2529  2:43:08  185 Alex Low                274 33:09  173 1:15:23 19.8  211 1:48:32  234 54:36  8:48 Vancouver,BC
  209  48/133 F  1/3  F1519  2:43:08   44 Joscelyne Carthy        176 29:53  236 1:19:51 18.7  229 1:49:44  211 53:25  8:36 Surrey,BC
  210 138/202 M 30/43 M3539  2:43:14   87 Patrick Dickie          278 33:17  144 1:13:19 20.3  178 1:46:36  270 56:38  9:07 Halfmoon Bay,BC
  211  49/133 F  2/5  F5054  2:43:14  131 Laura Hall              128 28:18  254 1:21:25 18.3  228 1:49:43  213 53:31  8:37 Vancouver,BC
  212  25/50  R  3/15 R-Fem  2:43:14  423  Peak Performance       296 34:01  231 1:19:33 18.8  248 1:53:33  152 49:41  8:00 Whistler,BC
  213 139/202 M 31/43 M3539  2:43:16   47 Greg Chambers           240 31:50  132 1:12:54 20.5  165 1:44:44  290 58:33  9:26 Vancouver,BC
  214  50/133 F 11/23 F2529  2:43:19  182 Tiffany Lombaert        186 30:05  244 1:20:24 18.6  231 1:50:29  199 52:51  8:31 Salmon Arm,BC
  215  51/133 F 15/30 F3539  2:43:25   35 Vicky Bungay            226 31:19  227 1:19:15 18.8  232 1:50:34  200 52:52  8:31 Vancouver,BC
  216 140/202 M  4/8  M5559  2:43:26   53 John Christie           299 34:18  191 1:16:46 19.4  237 1:51:04  193 52:22  8:26 Vancouver,BC
  217  52/133 F  1/6  F5559  2:43:31  212 Marjorie Milliken       132 28:26  169 1:14:49 19.9  138 1:43:15  314 60:16  9:42 Lund,BC
  218 141/202 M 23/29 M2529  2:43:32  211 Brian Miller             16 22:45  221 1:18:44 18.9  123 1:41:28  330 62:04 10:00 Vancouver,BC
  219  53/133 F 12/23 F2529  2:43:36  299 Erin Tate               266 32:39  251 1:20:59 18.4  249 1:53:38  160 49:59  8:03 Port Coquitlam,B
  220  54/133 F 13/36 F3034  2:43:52  261 Christina Rice           97 27:11  229 1:19:29 18.8  179 1:46:39  281 57:13  9:13 Vancouver,BC
  221 142/202 M 32/43 M3539  2:43:59  328 Adrian White            229 31:26  241 1:20:14 18.6  241 1:51:39  192 52:20  8:26 Vancouver,BC
  222  55/133 F 14/36 F3034  2:44:01  105 BobbyJo Evans           270 32:51  178 1:15:51 19.7  215 1:48:41  246 55:20  8:55 Vancouver,BC
  223  56/133 F 16/30 F3539  2:44:12   34 Lori Broker             214 30:47  224 1:18:57 18.9  227 1:49:43  232 54:30  8:47 Squamish,BC
  224 143/202 M  3/5  M6064  2:44:21  205 Don McIntosh            200 30:25  242 1:20:17 18.6  233 1:50:42  217 53:40  8:39 Port Coquitlam,B
  225  57/133 F  6/10 F2024  2:44:28  152 Katherine Johnston      112 27:53  246 1:20:35 18.5  210 1:48:28  256 56:00  9:01 Vancouver,BC
  226  58/133 F 15/36 F3034  2:44:33  246 Sandra Phillips          77 26:36  249 1:20:56 18.4  194 1:47:32  276 57:01  9:11 Powell River,BC
  227  59/133 F 13/23 F2529  2:44:47  207 Denise McLaughlin       300 34:20  190 1:16:44 19.4  236 1:51:03  219 53:44  8:39 Garibaldi Hghlan,
  228  60/133 F 16/36 F3034  2:44:47  295 Kimberley Styles        210 30:43  196 1:16:56 19.4  197 1:47:39  279 57:09  9:12 Garibaldi Hghlan,
  229 144/202 M 16/24 M4549  2:44:47  315 Peter Vandriel          265 32:35  218 1:18:13 19.1  235 1:50:48  226 54:00  8:42 Surrey,BC
  230  61/133 F  2/3  F1519  2:44:59  163 Megan Kindree           314 35:15  220 1:18:24 19.0  250 1:53:39  177 51:21  8:16 Garibaldi Hghlan,
  231  62/133 F  3/3  F1519  2:44:59  266 Heather Rochetta        247 31:59  259 1:21:40 18.3  252 1:53:39  178 51:21  8:16 Garibaldi Hghlan,
  232  63/133 F 17/36 F3034  2:45:29  154 Wendy Johnstone         115 27:57  250 1:20:58 18.4  219 1:48:55  269 56:35  9:07 Burnaby,BC
  233  64/133 F 17/30 F3539  2:45:31  116 Jackie Fulton            80 26:45  270 1:22:14 18.1  220 1:48:59  266 56:32  9:06 Whistler,BC
  234 145/202 M 24/34 M4044  2:45:38  172 Sean Languedoc          102 27:22  228 1:19:18 18.8  180 1:46:39  297 58:59  9:30 Garibaldi Hghlan,
  235  65/133 F 18/30 F3539  2:45:45  310 Cheryl Trenaman         355 39:24  180 1:16:06 19.6  260 1:55:30  164 50:15  8:06 Penticton,BC
  236 146/202 M 17/24 M4549  2:45:45  286 Peter Sotola            152 29:05  193 1:16:52 19.4  175 1:45:56  309 59:49  9:38 Surrey,BC
  237  26/50  R  4/15 R-Fem  2:45:45  443  Tri-Tarts              343 38:22  152 1:13:46 20.2  243 1:52:08  216 53:38  8:38 Whistler,BC
  238 147/202 M 33/43 M3539  2:45:55  252 Timothy Prior           264 32:34  199 1:17:05 19.4  225 1:49:38  262 56:17  9:04 Garibaldi Hghlan,
  239 148/202 M 24/29 M2529  2:46:05  100 Jason Emmert            370 40:43  248 1:20:45 18.5  311 2:01:28   66 44:38  7:11 Vancouver,BC
  240 149/202 M 18/24 M4549  2:46:30  218 Joseph Morgan           310 34:45  192 1:16:49 19.4  240 1:51:33  241 54:58  8:51 Kelowna,BC
  241 150/202 M 29/38 M3034  2:46:32   58 Chris Clibbon           133 28:28  253 1:21:15 18.4  226 1:49:42  274 56:50  9:09 Vancouver,BC
  242 151/202 M 34/43 M3539  2:46:55   90 Steven Drysdale         175 29:49  256 1:21:30 18.3  238 1:51:19  251 55:37  8:57 Vancouver,BC
  243 152/202 M 30/38 M3034  2:47:10  227 Joseph Nelson            68 26:27  367 1:41:00 14.8  342 2:07:26   12 39:44  6:24 Prince Rupert,BC
  244 153/202 M 25/34 M4044  2:47:54  200 Greg May                351 39:12  267 1:22:11 18.1  310 2:01:23   99 46:32  7:30 Sutherland NSW,A
  245  66/133 F 19/30 F3539  2:48:00   64 Jennifer Cook           261 32:25  262 1:21:51 18.2  255 1:54:15  220 53:45  8:39 Kamloops,BC
  246  67/133 F  7/10 F2024  2:48:29  127 Kendra Greenslade        87 26:58  206 1:17:32 19.2  158 1:44:30  342 64:00 10:18 West Vancouver,B
  247  68/133 F  4/13 F4044  2:48:32  282 Sandra Smith            150 29:00  215 1:17:58 19.1  182 1:46:58  325 61:35  9:55 Abbotsford,BC
  248 154/202 M 25/29 M2529  2:48:34  308 Michael Travers         253 32:10  187 1:16:36 19.5  216 1:48:45  310 59:50  9:38 North Vancouver,
  249  27/50  R 17/27 R-Mix  2:48:40  411  Go Joe Go              316 35:25  293 1:25:00 17.5  302 2:00:24  124 48:17  7:47 Garibaldi Hghlan,
  250 155/202 M 10/11 M2024  2:49:04  181 Lane Litke              309 34:42  263 1:21:54 18.2  270 1:56:36  195 52:29  8:27 Coquitlam,BC
  251  69/133 F 14/23 F2529  2:49:12  248 Kirstie Pirie           203 30:33  272 1:22:23 18.1  246 1:52:55  263 56:18  9:04 Vancouver,BC
  252  28/50  R  5/15 R-Fem  2:49:28  416  Laloma                 252 32:09  290 1:24:15 17.7  268 1:56:24  203 53:04  8:33 Garibaldi Hghlan,
  253  70/133 F 20/30 F3539  2:49:36  267 Denise Roman            195 30:18  301 1:25:57 17.4  266 1:56:14  210 53:23  8:36 North Vancouver,
  254 156/202 M  5/8  M5559  2:50:09  201 Cam McCullough          307 34:35  271 1:22:20 18.1  273 1:56:54  208 53:16  8:35 Whistler,BC
  255 157/202 M 19/24 M4549  2:50:30   13 Nigel Barrett           279 33:18  235 1:19:49 18.7  247 1:53:07  282 57:23  9:15 Surrey,BC
  256  71/133 F 18/36 F3034  2:50:33  102 Audrey Erlandson        212 30:45  210 1:17:40 19.2  208 1:48:24  331 62:09 10:00 Kamloops,BC
  257  29/50  R 18/27 R-Mix  2:50:45  404  Apex Communications    255 32:14  120 1:12:21 20.6  160 1:44:35  351 66:11 10:39 Surrey,BC
  258 158/202 M  3/4  M5054  2:50:55  292 Dan Stiner              277 33:16  284 1:23:54 17.8  277 1:57:09  221 53:46  8:40 Squamish,BC
  259  72/133 F  3/6  F4549  2:50:56   31 Anne Bracey             283 33:22  273 1:22:27 18.1  262 1:55:48  244 55:08  8:53 Garibaldi Hghlan,
  260 159/202 M 35/43 M3539  2:51:10    8 Dug Andrusiek           352 39:13  175 1:15:25 19.8  256 1:54:38  268 56:33  9:06 North Vancouver,
  261  30/50  R  6/15 R-Fem  2:51:17  417  Les Grenouilles         81 26:48  315 1:27:19 17.1  254 1:54:06  280 57:11  9:13 Squamish,BC
  262  31/50  R 19/27 R-Mix  2:51:26  432  Team Apex              166 29:30  219 1:18:17 19.1  198 1:47:46  340 63:40 10:15 Surrey,BC
  263  32/50  R 20/27 R-Mix  2:51:43  430  Tandem Team            327 36:12  125 1:12:34 20.6  217 1:48:45  335 62:58 10:08 Garibaldi Hghlan,
  264 160/202 M 36/43 M3539  2:51:58  219 Ingo Moxon              302 34:23  182 1:16:19 19.5  234 1:50:42  321 61:16  9:52 Vancouver,BC
  265  33/50  R  7/15 R-Fem  2:52:07  442  Tri-Babies             295 33:59  232 1:19:41 18.7  251 1:53:39  289 58:29  9:25 Whistler,BC
  266  73/133 F 15/23 F2529  2:52:08   21 Erin Bevevino           303 34:24  277 1:23:00 18.0  281 1:57:23  237 54:45  8:49 Westbank,BC
  267 161/202 M 26/34 M4044  2:52:25  343 Kim O'Leary             353 39:18  188 1:16:36 19.5  263 1:55:53  265 56:32  9:06 Vancouver,BC
  268  74/133 F  5/13 F4044  2:52:31  157 May Jung                271 33:03  320 1:28:04 16.9  307 2:01:06  180 51:25  8:17 North Vancouver,
  269 162/202 M 31/38 M3034  2:52:50   92 Sean Duke               288 33:32  289 1:24:11 17.7  284 1:57:43  243 55:08  8:53 Surrey,BC
  270  75/133 F 19/36 F3034  2:53:03  171 Kirstin Lane            290 33:39  285 1:23:55 17.8  282 1:57:34  248 55:30  8:56 Sidney,BC
  271 163/202 M 20/24 M4549  2:53:06   66 Rob Cooper              329 36:18  268 1:22:12 18.1  291 1:58:29  235 54:37  8:48 Vancouver,BC
  272  76/133 F  2/6  F5559  2:53:21  103 Bonnie Ervin            238 31:47  294 1:25:07 17.5  272 1:56:53  264 56:28  9:06 Royston,BC
  273 164/202 M 11/11 M2024  2:53:27    3 Brandon Adams           251 32:08  237 1:19:52 18.7  242 1:51:59  323 61:29  9:54 Garibaldi Hghlan,
  274  77/133 F 20/36 F3034  2:53:28  169 Nicola Lambrechts       320 35:41  260 1:21:40 18.3  279 1:57:21  259 56:08  9:02 Vancouver,BC
  275  78/133 F  6/13 F4044  2:54:05  213 Barb Mingo              324 35:55  296 1:25:26 17.5  309 2:01:20  197 52:45  8:30 Vancouver,BC
  276 165/202 M 21/24 M4549  2:54:13  277 Brian Shale             181 29:58  234 1:19:47 18.7  230 1:49:44  344 64:29 10:23 Coquitlam,BC
  277  34/50  R  8/15 R-Fem  2:54:16  445  Williams Team          227 31:21  305 1:26:16 17.3  283 1:57:37  272 56:39  9:07 Vancouver,BC
  278  79/133 F 16/23 F2529  2:54:16  223 Esther Musslick          82 26:48  269 1:22:14 18.1  221 1:49:01  348 65:15 10:31 North Vancouver,
  279 166/202 M 26/29 M2529  2:54:26  999  Name Unknown                                        287 1:57:54  267 56:32  9:06 Vancouver,BC
  280 167/202 M 32/38 M3034  2:54:36   88 David Dionysius         269 32:50  300 1:25:52 17.4  292 1:58:42  254 55:55  9:00 Canmore,AB
  281 168/202 M 27/34 M4044  2:54:41  191 Richard MacKellar       328 36:12  121 1:12:21 20.6  213 1:48:33  350 66:08 10:39 Garibaldi Hghlan,
  282  35/50  R 21/27 R-Mix  2:54:54  414  Jumping Jelly  Beans    69 26:27  328 1:29:50 16.6  267 1:56:16  292 58:38  9:27 Brackendale,BC
  283  80/133 F  7/13 F4044  2:55:08   59 Rhonda Cochrane         292 33:50  264 1:22:06 18.2  264 1:55:55  302 59:13  9:32 Abbotsford,BC
  284  81/133 F  1/1  F6064  2:55:29  237 Mae Palm                281 33:19  324 1:28:57 16.8  315 2:02:16  207 53:13  8:34 Garibaldi Hghlan,
  285  82/133 F  8/13 F4044  2:55:48   89 Terrie Dlugon           362 39:50  281 1:23:33 17.9  322 2:03:23  194 52:26  8:27 Vancouver,BC
  286  36/50  R 22/27 R-Mix  2:55:49  444  Two for Tri-ing        365 40:05  340 1:31:49 16.2  355 2:11:54   54 43:56  7:05 Vancouver,BC
  287  37/50  R 23/27 R-Mix  2:55:58  435  The Beginners          366 40:07  261 1:21:49 18.2  314 2:01:56  227 54:03  8:42 West Vancouver,B
  288  83/133 F 21/30 F3539  2:56:23  217 Denise Morbey           254 32:10  308 1:26:49 17.2  293 1:58:58  284 57:25  9:15 North Vancouver,
  289 169/202 M 37/43 M3539  2:56:28  263 Mark Robbins            347 38:59  257 1:21:36 18.3  304 2:00:35  253 55:54  9:00 Vancouver,BC
  290 170/202 M  4/5  M6064  2:56:52  104 Paul Ervin              239 31:47  302 1:26:02 17.3  286 1:57:48  298 59:04  9:31 Royston,BC
  291  84/133 F 22/30 F3539  2:56:58  265 Michele Roblin          120 28:06  323 1:28:47 16.8  271 1:56:53  311 60:06  9:41 Garibaldi Hghlan,
  292 171/202 M  4/4  M5054  2:57:03   71 Richard Cudmore         262 32:32  274 1:22:29 18.1  257 1:55:01  328 62:03 10:00 Squamish,BC
  293  38/50  R  7/8  R-Male 2:57:09  402  3 Guys in the Tri      346 38:44  322 1:28:40 16.8  341 2:07:23  156 49:46  8:01 Garibaldi Hghlan,
  294 172/202 M 28/34 M4044  2:57:16  115 Craig Frost             380 44:40  265 1:22:06 18.2  337 2:06:46  167 50:30  8:08 Campbell River,B
  295  85/133 F 17/23 F2529  2:57:25  194 Shana Marfell           225 31:12  310 1:27:04 17.1  288 1:58:15  301 59:10  9:32 Vancouver,BC
  296  86/133 F  9/13 F4044  2:57:28  108 Miriam Ezra             297 34:05  279 1:23:12 17.9  278 1:57:17  312 60:12  9:42 Port Coquitlam,B
  297  87/133 F 21/36 F3034  2:57:38  224 Hanna Musslick          273 33:08  283 1:23:49 17.8  274 1:56:56  316 60:43  9:47 Vancouver,BC
  298  88/133 F 18/23 F2529  2:57:40  259 Sylvia Reed             219 30:54  291 1:24:54 17.6  261 1:55:47  326 61:53  9:58 Whistler,BC
  299 173/202 M 33/38 M3034  2:58:10  244 Greg Peregrym           341 37:57  252 1:21:05 18.4  295 1:59:02  299 59:09  9:32 New Westminster,
  300  39/50  R  9/15 R-Fem  2:58:20  403  3 Vets                 361 39:49  225 1:19:09 18.8  294 1:58:58  305 59:22  9:34 Garibaldi Hghlan,
  301  40/50  R 10/15 R-Fem  2:58:20  441  Three Gals A'Trying    383 55:39  201 1:17:07 19.3  356 2:12:46   79 45:35  7:20 North Vancouver,
  302  89/133 F 22/36 F3034  2:58:27  322 Donna Wanless           249 32:00  314 1:27:18 17.1  297 1:59:17  300 59:10  9:32 Vancouver,BC
  303  41/50  R 24/27 R-Mix  2:58:28  407  Dads Devils            306 34:30  334 1:30:26 16.5  327 2:04:56  214 53:32  8:37 Pemberton,BC
  304 174/202 M 27/29 M2529  2:58:41  317 Andrew Vit              301 34:22  288 1:24:08 17.7  290 1:58:29  313 60:12  9:42 Squamish,BC
  305  90/133 F 23/36 F3034  2:58:46  272 Rhonda Saari            213 30:46  278 1:23:01 18.0  253 1:53:47  345 64:59 10:28 Kamloops,BC
  306 175/202 M 38/43 M3539  2:58:52  130 Bill Gyorfi              66 26:24  338 1:31:22 16.3  285 1:57:46  320 61:06  9:50 Garibaldi Hghlan,
  307 176/202 M 29/34 M4044  2:59:26  260 Ian Reith               348 39:03  318 1:27:44 17.0  338 2:06:47  196 52:39  8:29 Whistler,BC
  308 177/202 M 30/34 M4044  2:59:30   81 Ian Davis               235 31:41  307 1:26:47 17.2  289 1:58:27  319 61:03  9:50 Squamish,BC
  309  91/133 F 24/36 F3034  2:59:34  301 Cara Thayer             322 35:50  326 1:29:16 16.7  329 2:05:06  231 54:29  8:47 North Vancouver,
  310  92/133 F 23/30 F3539  2:59:45  188 Ann-Marie Lum-O'Keefe   339 37:45  292 1:24:56 17.6  317 2:02:41  278 57:04  9:12 New Westminster,
  311 178/202 M 22/24 M4549  2:59:48  278 Lowell Sheppard         364 40:05  255 1:21:29 18.3  312 2:01:34  288 58:15  9:23 Abbotsford,BC
  312 179/202 M  1/2  M6569  2:59:53  135 David Harrison          340 37:48  280 1:23:28 17.9  308 2:01:15  293 58:38  9:27 Vancouver,BC
  313  93/133 F  3/5  F5054  2:59:59  164 Gail Kipp               272 33:04  317 1:27:42 17.0  305 2:00:45  303 59:14  9:32 Kamloops,BC
  314 180/202 M 31/34 M4044  3:00:01  229 Greg Newton             338 37:40  299 1:25:42 17.4  321 2:03:22  271 56:39  9:07 Whistler,BC
  315  94/133 F 25/36 F3034  3:00:43  155 Donna Jones             367 40:10  319 1:27:48 17.0  343 2:07:58  198 52:46  8:30 Squamish,BC
  316  95/133 F 26/36 F3034  3:01:02  168 Roula Lainas            304 34:25  295 1:25:22 17.5  301 1:59:46  322 61:16  9:52 Vancouver,BC
  317 181/202 M 32/34 M4044  3:01:31   76 Perry Danforth          356 39:35  303 1:26:05 17.3  330 2:05:39  252 55:52  9:00 Vancouver,BC
  318  96/133 F  8/10 F2024  3:01:49   73 Lizzie Cullen           171 29:44  329 1:30:02 16.6  300 1:59:45  329 62:04 10:00 West Vancouver,B
  319  97/133 F 27/36 F3034  3:02:09  166 Dana Kroenert           179 29:55  312 1:27:10 17.1  276 1:57:05  346 65:05 10:29 Garibaldi Hghlan,
  320  42/50  R 25/27 R-Mix  3:02:12  434  Team Shayla            381 45:12  306 1:26:31 17.2  354 2:11:42  168 50:30  8:08 Vancouver,BC
  321 182/202 M 23/24 M4549  3:02:13   56 David Clarke             33 24:08  369 1:41:53 14.6  333 2:06:00  260 56:13  9:03 Vancouver,BC
  322 183/202 M 34/38 M3034  3:02:49  109 Vincent Fecteau         220 31:06  297 1:25:28 17.5  269 1:56:33  354 66:16 10:40 Squamish,BC
  323 184/202 M 28/29 M2529  3:03:19   10 Chris Atkins            377 43:11  309 1:26:59 17.1  350 2:10:10  205 53:10  8:34 Vancouver,BC
  324 185/202 M 35/38 M3034  3:03:56  318 Tobias Vlasblom         232 31:37  344 1:33:24 16.0  328 2:05:00  295 58:56  9:29 Vancouver,BC
  325  98/133 F 28/36 F3034  3:04:06   96 Leanie Eksteen          335 37:16  313 1:27:13 17.1  326 2:04:28  306 59:38  9:36 Garibaldi Hghlan,
  326 186/202 M 39/43 M3539  3:04:52  123 Eduardo Gil             315 35:21  311 1:27:06 17.1  316 2:02:27  332 62:25 10:03 Vancouver,BC
  327  43/50  R 11/15 R-Fem  3:04:55  401  2 hens and a chick     331 36:34  275 1:22:35 18.1  296 1:59:08  349 65:47 10:36 Garibaldi Hghlan,
  328 187/202 M  5/5  M6064  3:04:57   77 Rob Daniel              372 41:16  258 1:21:39 18.3  319 2:02:55  327 62:03 10:00 Vancouver,BC
  329  44/50  R 12/15 R-Fem  3:05:18  446  YBACS                  360 39:45  330 1:30:02 16.6  347 2:09:47  249 55:31  8:56 Squamish,BC
  330  99/133 F 24/30 F3539  3:05:59  180 Karen Lirenman          286 33:27  304 1:26:06 17.3  298 1:59:32  356 66:27 10:42 Vancouver,BC
  331 188/202 M 40/43 M3539  3:06:17   16 Richard Bauer           284 33:23  359 1:37:22 15.3  352 2:10:44  250 55:33  8:57 North Vancouver,
  332 189/202 M 41/43 M3539  3:06:50   49 Mike Charuk             160 29:20  366 1:40:47 14.8  349 2:10:07  273 56:43  9:08 Whistler,BC
  333  45/50  R 13/15 R-Fem  3:07:02  449  Wild Cherry Chicks     311 34:48  298 1:25:39 17.4  303 2:00:26  358 66:36 10:43 Garibaldi Hghlnd,
  334 190/202 M 24/24 M4549  3:07:07  303 Aron Tischler           318 35:34  346 1:34:05 15.9  346 2:09:38  285 57:30  9:16 Vancouver,BC
  335  46/50  R 14/15 R-Fem  3:07:15  415  Just for Fun           187 30:06  345 1:33:42 15.9  324 2:03:47  339 63:29 10:13 Whistler,BC
  336  47/50  R  8/8  R-Male 3:07:31  450  The Team               313 34:58  327 1:29:22 16.7  325 2:04:19  336 63:13 10:11 Squamish,BC
  337 100/133 F 19/23 F2529  3:08:01  268 Shauna Root             222 31:11  321 1:28:29 16.9  299 1:59:40  363 68:21 11:00 Vancouver,BC
  338 101/133 F 20/23 F2529  3:08:11  145 Nicole Hoskin           217 30:49  337 1:30:51 16.4  313 2:01:39  357 66:32 10:43 Garibaldi Hghlan,
  339 191/202 M 29/29 M2529  3:08:14  150 Evan Johnston           334 37:15  343 1:32:59 16.0  351 2:10:14  287 58:01  9:21 Vancouver,BC
  340 102/133 F 29/36 F3034  3:09:12  183 Paula Longmuir          233 31:38  347 1:34:07 15.8  331 2:05:44  338 63:28 10:13 Vancouver,BC
  341 103/133 F 25/30 F3539  3:09:23  174 Natalie Lauzon          116 27:58  352 1:35:11 15.7  320 2:03:08  353 66:15 10:40 North Vancouver,
  342 104/133 F 10/13 F4044  3:09:25  175 Lisa Lawrence           336 37:17  339 1:31:43 16.3  344 2:09:00  315 60:25  9:44 North Vancouver,
  343 105/133 F 26/30 F3539  3:10:25  336 Dawn Wright             323 35:52  333 1:30:20 16.5  335 2:06:11  343 64:14 10:21 Garibaldi Hghlan,
  344 106/133 F 27/30 F3539  3:10:42  162 Catriona Kincaid        326 36:10  316 1:27:34 17.0  323 2:03:43  359 67:00 10:47 North Vancouver,
  345 192/202 M 33/34 M4044  3:11:17  294 Brian Strilesky         319 35:36  335 1:30:31 16.5  334 2:06:07  347 65:11 10:30 Pitt Meadows,BC
  346  48/50  R 15/15 R-Fem  3:12:02  412  Half Pack              312 34:49  362 1:38:36 15.1  358 2:13:25  291 58:37  9:27 Garibaldi Hghlan,
  347 107/133 F  9/10 F2024  3:12:13  208 Jennifer McPhillips     127 28:17  325 1:29:06 16.7  280 1:57:22  374 74:51 12:03 Surrey,BC
  348 108/133 F 21/23 F2529  3:12:26  144 Carrie Holt             371 40:53  354 1:35:40 15.6  364 2:16:32  255 55:55  9:00 Vancouver,BC
  349 109/133 F  4/5  F5054  3:13:55  179 Gayle Lewis             359 39:44  353 1:35:25 15.6  362 2:15:09  294 58:47  9:28 Squamish,BC
  350 193/202 M 42/43 M3539  3:14:09  306 Paul Townsend           293 33:54  371 1:44:01 14.3  367 2:17:55  261 56:15  9:04 Coquitlam,BC
  351 110/133 F 28/30 F3539  3:14:13   91 Beth Dubeck             245 31:54  350 1:34:39 15.8  336 2:06:33  361 67:41 10:54 Squamish,BC
  352 194/202 M  6/8  M5559  3:15:41  236 Walter Orb              373 41:54  286 1:23:55 17.8  332 2:05:48  370 69:53 11:15 Vancouver,BC
  353 111/133 F  5/5  F5054  3:16:13   63 Judy Comer              349 39:05  349 1:34:37 15.8  359 2:13:42  333 62:32 10:04 North Vancouver,
  354 112/133 F  3/6  F5559  3:16:33  281 Heather Sidsworth       257 32:17  368 1:41:02 14.8  357 2:13:18  337 63:15 10:11 Squamish,BC
  355 113/133 F 11/13 F4044  3:17:25  335 Michaela Wooldridge     244 31:53  351 1:35:06 15.7  339 2:06:59  372 70:27 11:21 Delta,BC
  356 114/133 F 29/30 F3539  3:18:22  151 Jill Johnston           317 35:28  355 1:35:40 15.6  353 2:11:08  360 67:14 10:50 North Vancouver,
  357 195/202 M  7/8  M5559  3:20:03   41 J.J. Camp               358 39:43  332 1:30:19 16.5  348 2:10:01  371 70:02 11:17 Vancouver,BC
  358  49/50  R 26/27 R-Mix  3:22:01  440  The Sajomimoplat       384 57:23  282 1:23:48 17.8  372 2:21:11  317 60:51  9:48 Vancouver,BC
  359  50/50  R 27/27 R-Mix  3:22:42  429  Splash Crash & Dash    285 33:24  378 1:51:55 13.3  375 2:25:18  283 57:24  9:15 Brackendale,BC
  360 115/133 F 30/36 F3034  3:22:49    7 Heather Alexander       375 43:04  357 1:35:52 15.6  368 2:18:55  341 63:54 10:17 Vancouver,BC
  361 116/133 F 31/36 F3034  3:23:16  195 Lisa Martin             369 40:18  375 1:49:55 13.6  379 2:30:12  202 53:04  8:33 Vancouver,BC
  362 196/202 M  8/8  M5559  3:23:51  101 Erwin Epp               333 36:38  361 1:38:05 15.2  360 2:14:42  368 69:10 11:08 Vancouver,BC
  363 117/133 F 22/23 F2529  3:24:28  117 Jennifer Gallicano      376 43:04  341 1:32:02 16.2  361 2:15:06  369 69:22 11:10 Surrey,BC
  364 118/133 F 23/23 F2529  3:24:47  132 Rebecca Hall            368 40:12  358 1:35:54 15.6  363 2:16:05  365 68:42 11:04 Squamish,BC
  365 119/133 F  4/6  F5559  3:25:32   14 Mary Battell            345 38:44  372 1:45:16 14.2  373 2:23:59  324 61:33  9:55 Delta,BC
  366 120/133 F 32/36 F3034  3:26:08  304 Kari Tithecott          374 42:45  348 1:34:17 15.8  365 2:17:01  367 69:08 11:08 Vancouver,BC
  367 121/133 F  5/6  F5559  3:27:19  186 Donna Lowe              378 44:02  364 1:40:24 14.9  374 2:24:25  334 62:54 10:08 Surrey,BC
  368 122/133 F  4/6  F4549  3:28:19  124 Carole Gillam           263 32:33  374 1:47:06 13.9  369 2:19:39  364 68:40 11:04 Richmond,BC
  369 197/202 M  2/2  M6569  3:28:28  178 Hilmar Lewandowski      337 37:25  376 1:50:11 13.5  378 2:27:35  318 60:54  9:48 Surrey,BC
  370 198/202 M 36/38 M3034  3:28:47  256 Zac Ratcliffe           379 44:11  356 1:35:51 15.6  371 2:20:01  366 68:47 11:05 Squamish,BC
  371 123/133 F 33/36 F3034  3:29:03  253 Tanya Prutton           197 30:22  342 1:32:24 16.1  318 2:02:46  377 86:18 13:54 Vancouver,BC
  372 124/133 F  5/6  F4549  3:29:52   72 Gillian Cullen          287 33:28  370 1:43:57 14.3  366 2:17:25  373 72:27 11:40 West Vancouver,B
  373 125/133 F  6/6  F5559  3:33:33   30 Danielle Bouchard       357 39:38  373 1:46:10 14.0  376 2:25:48  362 67:46 10:55 Cobble Hill,BC
  374 199/202 M 43/43 M3539  3:44:35  276 Chris Seyffert          363 39:53  380 1:58:20 12.6  380 2:38:13  355 66:23 10:41 Coquitlam,BC
  375 126/133 F  6/6  F4549  3:45:30  312 Alice Turkenburg        246 31:57  381 2:07:22 11.7  381 2:39:19  352 66:12 10:40 Kamloops,BC
  376 200/202 M 37/38 M3034  3:47:04  231 Harry Nishimura         354 39:21  365 1:40:38 14.8  370 2:19:59  378 87:05 14:01 Vancouver,BC
  377 127/133 F 12/13 F4044  3:47:28  192 Evonne MacLeod          321 35:45  377 1:51:28 13.4  377 2:27:12  376 80:16 12:55 Garibaldi Hghlan,
  378 128/133 F 34/36 F3034  4:03:51   70 Janet Cox               382 50:30  379 1:55:08 13.0  382 2:45:37  375 78:15 12:36 North Vancouver,
  379 129/133 F 10/10 F2024           129 Leah Guloien             61 26:13   98 1:11:05 21.0   83 1:37:17                  Port Moody,BC
  380 130/133 F 35/36 F3034           313 Anita Valcourt          215 30:47  183 1:16:27 19.5  187 1:47:13                  Vancouver,BC
  381 201/202 M 38/38 M3034           114 Francois Fournier       164 29:26  360 1:37:55 15.2  340 2:07:21                  Whistler,BC
  382 131/133 F 13/13 F4044           288 Michele Steenssens      350 39:11  331 1:30:09 16.5  345 2:09:19                  Garibaldi Hghlan,
  383 202/202 M 34/34 M4044           190 Ian MacInnis            161 29:22                                                 North Vancouver,
  384 132/133 F 36/36 F3034           139 Brandi Higgins          174 29:48                                                 Whistler,BC
  385 133/133 F 30/30 F3539            51 Linda Chow              305 34:28                                                 Vancouver,BC



FINAL OVERALL CLYDESDALE Results 
+-----------------------------------------------------------------------------------------------------------------------------------------------------------+
¦FINAL¦Place    ¦Place/TOTAL ¦  FINAL¦ BIB¦ NAME of                     ¦SWIM¦1.5Km¦ PACE¦BIKE¦ 40 Km ¦ Mi.¦End of BIKE ¦RUN ¦ 10 Km ¦ PACE¦                ¦
¦PLACE¦in SEX   ¦in DIVISION ¦  TIME ¦ NO.¦COMPETITOR                   ¦Rank¦Split¦/Mile¦Rank¦ Split ¦/Hr.¦Place  TIME ¦Rank¦ Split ¦/Mile¦CITY            ¦
¦-----+---------+------------+-------+----+-----------------------------+----------------+-----------------+------------+------------------+----------------¦
¦    1   1/9   M¦ 1/1  M2529 ¦2:19:56¦  68¦Brian Coote                  ¦   1 20:27 21:57¦   3 1:10:56 21.0¦   1 1:31:23¦   2   48:33  7:49¦White Rock,BC   ¦
¦    2   2/9   M¦ 1/3  M3034 ¦2:26:03¦ 128¦Jeff Grout                   ¦   3 27:06 29:04¦   2 1:09:36 21.4¦   3 1:36:42¦   3   49:22  7:57¦Maple Ridge,BC  ¦
¦    3   3/9   M¦ 1/2  M3539 ¦2:26:11¦ 309¦Sandy Treagus                ¦   7 29:35 31:45¦   1 1:09:19 21.5¦   4 1:38:54¦   1   47:18  7:37¦Whistler,BC     ¦
¦    4   4/9   M¦ 2/3  M3034 ¦2:31:52¦ 184¦Jason Lopez                  ¦   2 24:48 26:36¦   4 1:11:02 21.0¦   2 1:35:49¦   4   56:04  9:02¦Vancouver,BC    ¦
¦    5   5/9   M¦ 2/2  M3539 ¦2:38:51¦  93¦Kevin Eck                    ¦   4 27:19 29:18¦   5 1:11:50 20.8¦   5 1:39:08¦   7   59:43  9:37¦Vancouver,BC    ¦
¦    6   6/9   M¦ 1/2  M4549 ¦2:45:45¦ 286¦Peter Sotola                 ¦   6 29:05 31:12¦   6 1:16:52 19.4¦   6 1:45:56¦   8   59:49  9:38¦Surrey,BC       ¦
¦    7   1/6   F¦ 1/4  F4044 ¦2:48:32¦ 282¦Sandra Smith                 ¦   5 29:00 31:07¦   7 1:17:58 19.1¦   7 1:46:58¦   9 1:01:35  9:55¦Abbotsford,BC   ¦
¦    8   7/9   M¦ 2/2  M4549 ¦2:54:13¦ 277¦Brian Shale                  ¦   8 29:58 32:09¦   8 1:19:47 18.7¦   8 1:49:44¦  10 1:04:29 10:23¦Coquitlam,BC    ¦
¦    9   2/6   F¦ 2/4  F4044 ¦2:55:08¦  59¦Rhonda Cochrane              ¦  12 33:50 36:18¦   9 1:22:06 18.2¦   9 1:55:55¦   6   59:13  9:32¦Abbotsford,BC   ¦
¦   10   8/9   M¦ 1/1  M4044 ¦3:00:01¦ 229¦Greg Newton                  ¦  14 37:40 40:25¦  11 1:25:42 17.4¦  12 2:03:22¦   5   56:39  9:07¦Whistler,BC     ¦
¦   11   9/9   M¦ 3/3  M3034 ¦3:02:49¦ 109¦Vincent Fecteau              ¦   9 31:06 33:22¦  10 1:25:28 17.5¦  10 1:56:33¦  11 1:06:16 10:40¦Squamish,BC     ¦
¦   12   3/6   F¦ 1/1  F2529 ¦3:08:01¦ 268¦Shauna Root                  ¦  10 31:11 33:28¦  12 1:28:29 16.9¦  11 1:59:40¦  12 1:08:21 11:00¦Vancouver,BC    ¦
¦   13   4/6   F¦ 3/4  F4044 ¦3:17:25¦ 335¦Michaela Wooldridge          ¦  11 31:53 34:13¦  14 1:35:06 15.7¦  13 2:06:59¦  13 1:10:27 11:21¦Delta,BC        ¦
¦   14   5/6   F¦ 4/4  F4044 ¦       ¦ 288¦Michele Steenssens           ¦  15 39:11 42:02¦  13 1:30:09 16.5¦  14 2:09:19¦                  ¦Garibaldi Hghlan¦
¦   15   6/6   F¦ 1/1  F3539 ¦       ¦  51¦Linda Chow                   ¦  13 34:28 36:58¦                 ¦            ¦                  ¦Vancouver,BC    ¦
+-----------------------------------------------------------------------------------------------------------------------------------------------------------+